sensor_id;sensor_type;location;lat;lon;timestamp;P1;durP1;ratioP1;P2;durP2;ratioP2
60169;SDS011;46042;49.444;6.862;2023-07-09T00:02:12;9.68;;;3.70;;
60169;SDS011;46042;49.444;6.862;2023-07-09T00:04:40;5.70;;;3.85;;
60169;SDS011;46042;49.444;6.862;2023-07-09T00:07:08;8.40;;;3.60;;
60169;SDS011;46042;49.444;6.862;2023-07-09T00:12:26;6.55;;;4.05;;
60169;SDS011;46042;49.444;6.862;2023-07-09T00:14:55;5.75;;;3.45;;
60169;SDS011;46042;49.444;6.862;2023-07-09T00:17:33;8.45;;;3.60;;
60169;SDS011;46042;49.444;6.862;2023-07-09T00:20:00;10.13;;;4.63;;
60169;SDS011;46042;49.444;6.862;2023-07-09T00:24:58;5.70;;;3.55;;
60169;SDS011;46042;49.444;6.862;2023-07-09T00:27:25;7.68;;;3.53;;
60169;SDS011;46042;49.444;6.862;2023-07-09T00:29:56;8.02;;;3.70;;
60169;SDS011;46042;49.444;6.862;2023-07-09T00:32:23;9.50;;;3.63;;
60169;SDS011;46042;49.444;6.862;2023-07-09T00:34:52;7.65;;;3.65;;
60169;SDS011;46042;49.444;6.862;2023-07-09T00:37:21;5.75;;;3.45;;
60169;SDS011;46042;49.444;6.862;2023-07-09T00:39:53;8.95;;;3.42;;
60169;SDS011;46042;49.444;6.862;2023-07-09T00:42:21;6.57;;;3.65;;
60169;SDS011;46042;49.444;6.862;2023-07-09T00:44:51;10.45;;;4.30;;
60169;SDS011;46042;49.444;6.862;2023-07-09T00:47:26;7.07;;;3.78;;
60169;SDS011;46042;49.444;6.862;2023-07-09T00:50:06;6.88;;;3.38;;
60169;SDS011;46042;49.444;6.862;2023-07-09T00:52:39;6.60;;;4.03;;
60169;SDS011;46042;49.444;6.862;2023-07-09T00:55:13;6.57;;;3.67;;
60169;SDS011;46042;49.444;6.862;2023-07-09T00:57:44;6.72;;;3.58;;
60169;SDS011;46042;49.444;6.862;2023-07-09T01:00:25;6.30;;;3.38;;
60169;SDS011;46042;49.444;6.862;2023-07-09T01:02:57;6.88;;;3.22;;
60169;SDS011;46042;49.444;6.862;2023-07-09T01:05:52;6.32;;;3.85;;
60169;SDS011;46042;49.444;6.862;2023-07-09T01:08:21;4.88;;;3.58;;
60169;SDS011;46042;49.444;6.862;2023-07-09T01:10:48;9.10;;;4.05;;
60169;SDS011;46042;49.444;6.862;2023-07-09T01:13:15;8.45;;;3.72;;
60169;SDS011;46042;49.444;6.862;2023-07-09T01:15:46;5.85;;;3.80;;
60169;SDS011;46042;49.444;6.862;2023-07-09T01:18:15;8.00;;;3.95;;
60169;SDS011;46042;49.444;6.862;2023-07-09T01:20:42;6.15;;;3.45;;
60169;SDS011;46042;49.444;6.862;2023-07-09T01:23:09;7.45;;;3.47;;
60169;SDS011;46042;49.444;6.862;2023-07-09T01:25:42;9.18;;;3.67;;
60169;SDS011;46042;49.444;6.862;2023-07-09T01:28:18;7.30;;;3.75;;
60169;SDS011;46042;49.444;6.862;2023-07-09T01:30:47;6.57;;;3.60;;
60169;SDS011;46042;49.444;6.862;2023-07-09T01:33:21;4.80;;;3.20;;
60169;SDS011;46042;49.444;6.862;2023-07-09T01:35:49;7.53;;;3.72;;
60169;SDS011;46042;49.444;6.862;2023-07-09T01:38:16;7.05;;;3.70;;
60169;SDS011;46042;49.444;6.862;2023-07-09T01:40:42;7.00;;;3.58;;
60169;SDS011;46042;49.444;6.862;2023-07-09T01:43:12;7.78;;;3.50;;
60169;SDS011;46042;49.444;6.862;2023-07-09T01:45:39;5.80;;;3.58;;
60169;SDS011;46042;49.444;6.862;2023-07-09T01:48:05;12.55;;;3.78;;
60169;SDS011;46042;49.444;6.862;2023-07-09T01:50:40;6.63;;;3.50;;
60169;SDS011;46042;49.444;6.862;2023-07-09T01:53:11;6.85;;;3.70;;
60169;SDS011;46042;49.444;6.862;2023-07-09T01:55:39;8.40;;;4.00;;
60169;SDS011;46042;49.444;6.862;2023-07-09T01:58:06;5.32;;;3.40;;
60169;SDS011;46042;49.444;6.862;2023-07-09T02:00:34;10.13;;;3.53;;
60169;SDS011;46042;49.444;6.862;2023-07-09T02:03:01;7.80;;;3.90;;
60169;SDS011;46042;49.444;6.862;2023-07-09T02:05:31;8.25;;;3.58;;
60169;SDS011;46042;49.444;6.862;2023-07-09T02:07:59;8.07;;;3.78;;
60169;SDS011;46042;49.444;6.862;2023-07-09T02:10:26;7.57;;;3.67;;
60169;SDS011;46042;49.444;6.862;2023-07-09T02:12:53;8.00;;;3.92;;
60169;SDS011;46042;49.444;6.862;2023-07-09T02:15:20;7.32;;;4.05;;
60169;SDS011;46042;49.444;6.862;2023-07-09T02:17:47;6.22;;;3.65;;
60169;SDS011;46042;49.444;6.862;2023-07-09T02:20:14;5.38;;;3.80;;
60169;SDS011;46042;49.444;6.862;2023-07-09T02:22:41;4.72;;;3.33;;
60169;SDS011;46042;49.444;6.862;2023-07-09T02:25:08;7.65;;;3.50;;
60169;SDS011;46042;49.444;6.862;2023-07-09T02:27:35;6.50;;;4.32;;
60169;SDS011;46042;49.444;6.862;2023-07-09T02:30:04;8.73;;;3.90;;
60169;SDS011;46042;49.444;6.862;2023-07-09T02:32:32;6.70;;;3.70;;
60169;SDS011;46042;49.444;6.862;2023-07-09T02:34:59;8.98;;;3.72;;
60169;SDS011;46042;49.444;6.862;2023-07-09T02:37:25;5.00;;;3.30;;
60169;SDS011;46042;49.444;6.862;2023-07-09T02:39:53;6.38;;;3.63;;
60169;SDS011;46042;49.444;6.862;2023-07-09T02:42:20;5.90;;;3.53;;
60169;SDS011;46042;49.444;6.862;2023-07-09T02:44:52;9.82;;;4.20;;
60169;SDS011;46042;49.444;6.862;2023-07-09T02:47:18;6.57;;;3.65;;
60169;SDS011;46042;49.444;6.862;2023-07-09T02:49:45;6.13;;;3.70;;
60169;SDS011;46042;49.444;6.862;2023-07-09T02:52:12;6.75;;;3.95;;
60169;SDS011;46042;49.444;6.862;2023-07-09T02:54:39;9.85;;;4.30;;
60169;SDS011;46042;49.444;6.862;2023-07-09T02:57:06;6.15;;;3.78;;
60169;SDS011;46042;49.444;6.862;2023-07-09T02:59:33;8.45;;;3.88;;
60169;SDS011;46042;49.444;6.862;2023-07-09T03:02:00;7.82;;;4.40;;
60169;SDS011;46042;49.444;6.862;2023-07-09T03:04:27;5.97;;;3.88;;
60169;SDS011;46042;49.444;6.862;2023-07-09T03:06:54;10.88;;;4.20;;
60169;SDS011;46042;49.444;6.862;2023-07-09T03:09:21;5.80;;;3.55;;
60169;SDS011;46042;49.444;6.862;2023-07-09T03:11:47;7.30;;;4.15;;
60169;SDS011;46042;49.444;6.862;2023-07-09T03:14:15;11.48;;;4.93;;
60169;SDS011;46042;49.444;6.862;2023-07-09T03:16:42;6.88;;;3.40;;
60169;SDS011;46042;49.444;6.862;2023-07-09T03:19:09;7.45;;;4.00;;
60169;SDS011;46042;49.444;6.862;2023-07-09T03:21:36;6.47;;;3.50;;
60169;SDS011;46042;49.444;6.862;2023-07-09T03:24:03;9.27;;;3.83;;
60169;SDS011;46042;49.444;6.862;2023-07-09T03:26:33;7.97;;;3.78;;
60169;SDS011;46042;49.444;6.862;2023-07-09T03:29:00;6.22;;;3.47;;
60169;SDS011;46042;49.444;6.862;2023-07-09T03:31:26;8.32;;;3.63;;
60169;SDS011;46042;49.444;6.862;2023-07-09T03:33:53;7.03;;;3.60;;
60169;SDS011;46042;49.444;6.862;2023-07-09T03:36:20;6.55;;;3.67;;
60169;SDS011;46042;49.444;6.862;2023-07-09T03:38:47;6.95;;;3.97;;
60169;SDS011;46042;49.444;6.862;2023-07-09T03:41:14;5.88;;;3.95;;
60169;SDS011;46042;49.444;6.862;2023-07-09T03:43:42;5.38;;;3.75;;
60169;SDS011;46042;49.444;6.862;2023-07-09T03:46:09;7.38;;;4.18;;
60169;SDS011;46042;49.444;6.862;2023-07-09T03:48:36;6.60;;;3.90;;
60169;SDS011;46042;49.444;6.862;2023-07-09T03:51:03;7.00;;;3.83;;
60169;SDS011;46042;49.444;6.862;2023-07-09T03:53:30;7.20;;;4.25;;
60169;SDS011;46042;49.444;6.862;2023-07-09T03:55:57;6.95;;;3.53;;
60169;SDS011;46042;49.444;6.862;2023-07-09T03:58:27;5.85;;;3.80;;
60169;SDS011;46042;49.444;6.862;2023-07-09T04:00:53;7.65;;;3.72;;
60169;SDS011;46042;49.444;6.862;2023-07-09T04:03:21;6.93;;;3.88;;
60169;SDS011;46042;49.444;6.862;2023-07-09T04:05:49;9.68;;;4.32;;
60169;SDS011;46042;49.444;6.862;2023-07-09T04:08:16;8.75;;;3.83;;
60169;SDS011;46042;49.444;6.862;2023-07-09T04:10:43;6.13;;;4.05;;
60169;SDS011;46042;49.444;6.862;2023-07-09T04:13:09;7.80;;;3.90;;
60169;SDS011;46042;49.444;6.862;2023-07-09T04:15:36;7.55;;;4.22;;
60169;SDS011;46042;49.444;6.862;2023-07-09T04:18:03;7.97;;;4.07;;
60169;SDS011;46042;49.444;6.862;2023-07-09T04:20:30;10.25;;;4.35;;
60169;SDS011;46042;49.444;6.862;2023-07-09T04:22:57;7.78;;;4.15;;
60169;SDS011;46042;49.444;6.862;2023-07-09T04:25:23;6.70;;;3.92;;
60169;SDS011;46042;49.444;6.862;2023-07-09T04:27:50;5.72;;;3.88;;
60169;SDS011;46042;49.444;6.862;2023-07-09T04:30:17;9.50;;;3.80;;
60169;SDS011;46042;49.444;6.862;2023-07-09T04:32:46;8.80;;;4.43;;
60169;SDS011;46042;49.444;6.862;2023-07-09T04:35:13;6.60;;;3.88;;
60169;SDS011;46042;49.444;6.862;2023-07-09T04:37:40;7.03;;;4.00;;
60169;SDS011;46042;49.444;6.862;2023-07-09T04:40:08;7.72;;;4.20;;
60169;SDS011;46042;49.444;6.862;2023-07-09T04:42:39;7.00;;;3.88;;
60169;SDS011;46042;49.444;6.862;2023-07-09T04:45:07;7.18;;;4.35;;
60169;SDS011;46042;49.444;6.862;2023-07-09T04:47:35;7.82;;;3.78;;
60169;SDS011;46042;49.444;6.862;2023-07-09T04:50:04;7.40;;;4.30;;
60169;SDS011;46042;49.444;6.862;2023-07-09T04:52:32;8.65;;;3.90;;
60169;SDS011;46042;49.444;6.862;2023-07-09T04:54:59;9.85;;;4.40;;
60169;SDS011;46042;49.444;6.862;2023-07-09T04:57:27;8.73;;;4.20;;
60169;SDS011;46042;49.444;6.862;2023-07-09T04:59:56;6.40;;;3.80;;
60169;SDS011;46042;49.444;6.862;2023-07-09T05:02:23;7.07;;;4.30;;
60169;SDS011;46042;49.444;6.862;2023-07-09T05:04:50;7.47;;;4.20;;
60169;SDS011;46042;49.444;6.862;2023-07-09T05:07:18;6.57;;;4.05;;
60169;SDS011;46042;49.444;6.862;2023-07-09T05:09:45;9.23;;;4.30;;
60169;SDS011;46042;49.444;6.862;2023-07-09T05:12:12;6.72;;;4.20;;
60169;SDS011;46042;49.444;6.862;2023-07-09T05:14:42;5.63;;;4.00;;
60169;SDS011;46042;49.444;6.862;2023-07-09T05:17:09;11.18;;;4.28;;
60169;SDS011;46042;49.444;6.862;2023-07-09T05:19:36;6.50;;;3.72;;
60169;SDS011;46042;49.444;6.862;2023-07-09T05:22:03;11.05;;;3.80;;
60169;SDS011;46042;49.444;6.862;2023-07-09T05:24:30;8.90;;;4.38;;
60169;SDS011;46042;49.444;6.862;2023-07-09T05:26:56;6.97;;;4.60;;
60169;SDS011;46042;49.444;6.862;2023-07-09T05:29:24;16.33;;;4.53;;
60169;SDS011;46042;49.444;6.862;2023-07-09T05:31:51;7.68;;;4.63;;
60169;SDS011;46042;49.444;6.862;2023-07-09T05:34:18;6.47;;;4.00;;
60169;SDS011;46042;49.444;6.862;2023-07-09T05:36:44;7.03;;;3.78;;
60169;SDS011;46042;49.444;6.862;2023-07-09T05:39:14;11.10;;;4.50;;
60169;SDS011;46042;49.444;6.862;2023-07-09T05:44:09;5.28;;;4.30;;
60169;SDS011;46042;49.444;6.862;2023-07-09T05:46:36;9.10;;;4.57;;
60169;SDS011;46042;49.444;6.862;2023-07-09T05:49:03;10.00;;;4.70;;
60169;SDS011;46042;49.444;6.862;2023-07-09T05:51:31;7.90;;;4.28;;
60169;SDS011;46042;49.444;6.862;2023-07-09T05:53:58;6.85;;;4.00;;
60169;SDS011;46042;49.444;6.862;2023-07-09T05:56:25;7.25;;;4.05;;
60169;SDS011;46042;49.444;6.862;2023-07-09T05:58:52;7.57;;;4.22;;
60169;SDS011;46042;49.444;6.862;2023-07-09T06:01:19;7.13;;;3.75;;
60169;SDS011;46042;49.444;6.862;2023-07-09T06:03:46;9.35;;;4.30;;
60169;SDS011;46042;49.444;6.862;2023-07-09T06:06:14;6.30;;;4.40;;
60169;SDS011;46042;49.444;6.862;2023-07-09T06:08:41;6.38;;;4.22;;
60169;SDS011;46042;49.444;6.862;2023-07-09T06:11:08;9.60;;;4.53;;
60169;SDS011;46042;49.444;6.862;2023-07-09T06:13:35;6.55;;;4.55;;
60169;SDS011;46042;49.444;6.862;2023-07-09T06:16:02;6.85;;;4.32;;
60169;SDS011;46042;49.444;6.862;2023-07-09T06:18:29;9.75;;;4.63;;
60169;SDS011;46042;49.444;6.862;2023-07-09T06:20:59;6.97;;;4.03;;
60169;SDS011;46042;49.444;6.862;2023-07-09T06:23:27;8.80;;;5.10;;
60169;SDS011;46042;49.444;6.862;2023-07-09T06:25:54;7.63;;;4.32;;
60169;SDS011;46042;49.444;6.862;2023-07-09T06:28:22;5.93;;;4.25;;
60169;SDS011;46042;49.444;6.862;2023-07-09T06:30:55;7.43;;;3.92;;
60169;SDS011;46042;49.444;6.862;2023-07-09T06:33:23;7.20;;;4.00;;
60169;SDS011;46042;49.444;6.862;2023-07-09T06:35:53;9.18;;;4.75;;
60169;SDS011;46042;49.444;6.862;2023-07-09T06:38:22;9.25;;;4.63;;
60169;SDS011;46042;49.444;6.862;2023-07-09T06:40:49;8.13;;;4.97;;
60169;SDS011;46042;49.444;6.862;2023-07-09T06:43:17;9.80;;;5.03;;
60169;SDS011;46042;49.444;6.862;2023-07-09T06:45:57;6.28;;;4.68;;
60169;SDS011;46042;49.444;6.862;2023-07-09T06:48:26;10.27;;;4.30;;
60169;SDS011;46042;49.444;6.862;2023-07-09T06:50:54;7.28;;;4.82;;
60169;SDS011;46042;49.444;6.862;2023-07-09T06:53:23;7.65;;;4.65;;
60169;SDS011;46042;49.444;6.862;2023-07-09T06:55:51;9.07;;;4.85;;
60169;SDS011;46042;49.444;6.862;2023-07-09T06:58:25;8.30;;;4.63;;
60169;SDS011;46042;49.444;6.862;2023-07-09T07:00:54;9.02;;;5.35;;
60169;SDS011;46042;49.444;6.862;2023-07-09T07:03:22;7.82;;;4.60;;
60169;SDS011;46042;49.444;6.862;2023-07-09T07:05:53;10.90;;;4.68;;
60169;SDS011;46042;49.444;6.862;2023-07-09T07:08:20;6.78;;;4.95;;
60169;SDS011;46042;49.444;6.862;2023-07-09T07:10:49;10.48;;;4.78;;
60169;SDS011;46042;49.444;6.862;2023-07-09T07:13:22;10.27;;;4.85;;
60169;SDS011;46042;49.444;6.862;2023-07-09T07:15:49;8.00;;;4.90;;
60169;SDS011;46042;49.444;6.862;2023-07-09T07:18:16;11.48;;;4.90;;
60169;SDS011;46042;49.444;6.862;2023-07-09T07:20:42;6.72;;;5.03;;
60169;SDS011;46042;49.444;6.862;2023-07-09T07:23:09;9.80;;;5.40;;
60169;SDS011;46042;49.444;6.862;2023-07-09T07:25:36;10.40;;;5.65;;
60169;SDS011;46042;49.444;6.862;2023-07-09T07:28:03;9.77;;;5.57;;
60169;SDS011;46042;49.444;6.862;2023-07-09T07:33:05;11.85;;;6.32;;
60169;SDS011;46042;49.444;6.862;2023-07-09T07:35:32;8.93;;;5.63;;
60169;SDS011;46042;49.444;6.862;2023-07-09T07:38:02;9.13;;;5.68;;
60169;SDS011;46042;49.444;6.862;2023-07-09T07:40:29;9.65;;;5.78;;
60169;SDS011;46042;49.444;6.862;2023-07-09T07:42:56;9.20;;;5.88;;
60169;SDS011;46042;49.444;6.862;2023-07-09T07:45:22;11.40;;;6.15;;
60169;SDS011;46042;49.444;6.862;2023-07-09T07:47:49;8.27;;;5.47;;
60169;SDS011;46042;49.444;6.862;2023-07-09T07:50:18;12.80;;;6.40;;
60169;SDS011;46042;49.444;6.862;2023-07-09T07:52:45;12.57;;;5.88;;
60169;SDS011;46042;49.444;6.862;2023-07-09T07:55:11;12.18;;;6.22;;
60169;SDS011;46042;49.444;6.862;2023-07-09T07:57:44;8.27;;;5.50;;
60169;SDS011;46042;49.444;6.862;2023-07-09T08:00:11;14.20;;;6.22;;
60169;SDS011;46042;49.444;6.862;2023-07-09T08:02:38;10.90;;;6.10;;
60169;SDS011;46042;49.444;6.862;2023-07-09T08:05:05;9.13;;;5.32;;
60169;SDS011;46042;49.444;6.862;2023-07-09T08:07:32;16.13;;;5.78;;
60169;SDS011;46042;49.444;6.862;2023-07-09T08:09:59;9.00;;;5.75;;
60169;SDS011;46042;49.444;6.862;2023-07-09T08:12:25;9.75;;;5.43;;
60169;SDS011;46042;49.444;6.862;2023-07-09T08:14:52;11.90;;;5.80;;
60169;SDS011;46042;49.444;6.862;2023-07-09T08:17:19;9.50;;;5.03;;
60169;SDS011;46042;49.444;6.862;2023-07-09T08:19:46;11.48;;;5.47;;
60169;SDS011;46042;49.444;6.862;2023-07-09T08:22:17;8.02;;;5.35;;
60169;SDS011;46042;49.444;6.862;2023-07-09T08:24:47;11.25;;;5.88;;
60169;SDS011;46042;49.444;6.862;2023-07-09T08:27:14;14.77;;;5.55;;
60169;SDS011;46042;49.444;6.862;2023-07-09T08:29:50;12.48;;;5.45;;
60169;SDS011;46042;49.444;6.862;2023-07-09T08:32:18;11.85;;;5.82;;
60169;SDS011;46042;49.444;6.862;2023-07-09T08:34:45;11.57;;;5.93;;
60169;SDS011;46042;49.444;6.862;2023-07-09T08:37:32;8.85;;;5.57;;
60169;SDS011;46042;49.444;6.862;2023-07-09T08:39:59;8.63;;;5.40;;
60169;SDS011;46042;49.444;6.862;2023-07-09T08:42:31;11.48;;;5.90;;
60169;SDS011;46042;49.444;6.862;2023-07-09T08:46:16;10.60;;;5.63;;
60169;SDS011;46042;49.444;6.862;2023-07-09T08:49:00;10.20;;;5.80;;
60169;SDS011;46042;49.444;6.862;2023-07-09T08:51:39;7.00;;;5.70;;
60169;SDS011;46042;49.444;6.862;2023-07-09T08:54:13;9.00;;;5.22;;
60169;SDS011;46042;49.444;6.862;2023-07-09T08:56:46;9.15;;;5.80;;
60169;SDS011;46042;49.444;6.862;2023-07-09T08:59:14;13.10;;;6.05;;
60169;SDS011;46042;49.444;6.862;2023-07-09T09:01:49;11.00;;;6.13;;
60169;SDS011;46042;49.444;6.862;2023-07-09T09:07:17;11.57;;;5.93;;
60169;SDS011;46042;49.444;6.862;2023-07-09T09:09:49;11.50;;;5.13;;
60169;SDS011;46042;49.444;6.862;2023-07-09T09:14:59;10.85;;;5.85;;
60169;SDS011;46042;49.444;6.862;2023-07-09T09:17:39;8.55;;;5.78;;
60169;SDS011;46042;49.444;6.862;2023-07-09T09:20:08;8.52;;;6.75;;
60169;SDS011;46042;49.444;6.862;2023-07-09T09:22:50;10.68;;;6.15;;
60169;SDS011;46042;49.444;6.862;2023-07-09T09:25:30;11.20;;;5.72;;
60169;SDS011;46042;49.444;6.862;2023-07-09T09:28:01;9.52;;;5.38;;
60169;SDS011;46042;49.444;6.862;2023-07-09T09:30:29;12.30;;;6.07;;
60169;SDS011;46042;49.444;6.862;2023-07-09T09:32:58;8.75;;;5.47;;
60169;SDS011;46042;49.444;6.862;2023-07-09T09:35:31;9.95;;;5.57;;
60169;SDS011;46042;49.444;6.862;2023-07-09T09:38:12;9.35;;;5.07;;
60169;SDS011;46042;49.444;6.862;2023-07-09T09:40:42;10.98;;;5.60;;
60169;SDS011;46042;49.444;6.862;2023-07-09T09:43:12;11.63;;;5.32;;
60169;SDS011;46042;49.444;6.862;2023-07-09T09:45:47;14.35;;;5.57;;
60169;SDS011;46042;49.444;6.862;2023-07-09T09:48:19;11.75;;;5.32;;
60169;SDS011;46042;49.444;6.862;2023-07-09T09:50:53;7.53;;;5.25;;
60169;SDS011;46042;49.444;6.862;2023-07-09T09:53:23;8.68;;;5.47;;
60169;SDS011;46042;49.444;6.862;2023-07-09T09:55:52;9.85;;;5.25;;
60169;SDS011;46042;49.444;6.862;2023-07-09T09:58:24;10.55;;;5.95;;
60169;SDS011;46042;49.444;6.862;2023-07-09T10:00:54;9.82;;;4.93;;
60169;SDS011;46042;49.444;6.862;2023-07-09T10:03:32;13.02;;;5.38;;
60169;SDS011;46042;49.444;6.862;2023-07-09T10:06:03;7.50;;;5.32;;
60169;SDS011;46042;49.444;6.862;2023-07-09T10:14:00;10.02;;;5.70;;
60169;SDS011;46042;49.444;6.862;2023-07-09T10:16:34;18.33;;;5.38;;
60169;SDS011;46042;49.444;6.862;2023-07-09T10:24:49;10.75;;;5.40;;
60169;SDS011;46042;49.444;6.862;2023-07-09T10:27:28;11.73;;;4.80;;
60169;SDS011;46042;49.444;6.862;2023-07-09T10:35:29;8.45;;;5.50;;
60169;SDS011;46042;49.444;6.862;2023-07-09T10:40:53;8.63;;;5.13;;
60169;SDS011;46042;49.444;6.862;2023-07-09T10:46:05;11.25;;;5.43;;
60169;SDS011;46042;49.444;6.862;2023-07-09T10:48:43;8.55;;;4.97;;
60169;SDS011;46042;49.444;6.862;2023-07-09T10:53:45;8.77;;;5.18;;
60169;SDS011;46042;49.444;6.862;2023-07-09T10:56:19;10.60;;;4.85;;
60169;SDS011;46042;49.444;6.862;2023-07-09T10:59:00;17.48;;;6.05;;
60169;SDS011;46042;49.444;6.862;2023-07-09T11:01:34;11.95;;;5.45;;
60169;SDS011;46042;49.444;6.862;2023-07-09T11:04:08;10.57;;;5.68;;
60169;SDS011;46042;49.444;6.862;2023-07-09T11:06:43;10.90;;;5.55;;
60169;SDS011;46042;49.444;6.862;2023-07-09T11:09:20;12.40;;;5.57;;
60169;SDS011;46042;49.444;6.862;2023-07-09T11:11:53;8.35;;;5.38;;
60169;SDS011;46042;49.444;6.862;2023-07-09T11:14:28;12.57;;;5.15;;
60169;SDS011;46042;49.444;6.862;2023-07-09T11:17:01;13.63;;;5.65;;
60169;SDS011;46042;49.444;6.862;2023-07-09T11:19:29;11.65;;;5.40;;
60169;SDS011;46042;49.444;6.862;2023-07-09T11:21:57;8.77;;;5.28;;
60169;SDS011;46042;49.444;6.862;2023-07-09T11:27:33;11.98;;;5.88;;
60169;SDS011;46042;49.444;6.862;2023-07-09T11:30:24;11.30;;;5.43;;
60169;SDS011;46042;49.444;6.862;2023-07-09T11:32:55;14.82;;;5.38;;
60169;SDS011;46042;49.444;6.862;2023-07-09T11:35:53;11.00;;;5.93;;
60169;SDS011;46042;49.444;6.862;2023-07-09T11:41:22;10.02;;;5.63;;
60169;SDS011;46042;49.444;6.862;2023-07-09T11:44:04;11.00;;;5.68;;
60169;SDS011;46042;49.444;6.862;2023-07-09T11:46:48;11.52;;;5.57;;
60169;SDS011;46042;49.444;6.862;2023-07-09T11:49:21;10.55;;;5.05;;
60169;SDS011;46042;49.444;6.862;2023-07-09T11:51:52;9.75;;;5.63;;
60169;SDS011;46042;49.444;6.862;2023-07-09T11:54:25;13.10;;;4.85;;
60169;SDS011;46042;49.444;6.862;2023-07-09T11:56:53;15.40;;;6.20;;
60169;SDS011;46042;49.444;6.862;2023-07-09T11:59:21;10.68;;;5.32;;
60169;SDS011;46042;49.444;6.862;2023-07-09T12:01:48;13.25;;;5.97;;
60169;SDS011;46042;49.444;6.862;2023-07-09T12:04:19;16.35;;;6.05;;
60169;SDS011;46042;49.444;6.862;2023-07-09T12:06:52;10.07;;;5.50;;
60169;SDS011;46042;49.444;6.862;2023-07-09T12:09:30;13.65;;;5.97;;
60169;SDS011;46042;49.444;6.862;2023-07-09T12:11:58;10.88;;;5.43;;
60169;SDS011;46042;49.444;6.862;2023-07-09T12:14:25;10.63;;;5.85;;
60169;SDS011;46042;49.444;6.862;2023-07-09T12:16:53;7.93;;;5.35;;
60169;SDS011;46042;49.444;6.862;2023-07-09T12:19:22;9.60;;;5.50;;
60169;SDS011;46042;49.444;6.862;2023-07-09T12:21:55;9.35;;;5.28;;
60169;SDS011;46042;49.444;6.862;2023-07-09T12:24:25;11.32;;;5.93;;
60169;SDS011;46042;49.444;6.862;2023-07-09T12:26:58;13.00;;;5.72;;
60169;SDS011;46042;49.444;6.862;2023-07-09T12:29:26;11.15;;;5.82;;
60169;SDS011;46042;49.444;6.862;2023-07-09T12:31:58;12.35;;;5.85;;
60169;SDS011;46042;49.444;6.862;2023-07-09T12:34:30;10.77;;;5.65;;
60169;SDS011;46042;49.444;6.862;2023-07-09T12:36:58;12.60;;;6.07;;
60169;SDS011;46042;49.444;6.862;2023-07-09T12:39:26;10.73;;;5.57;;
60169;SDS011;46042;49.444;6.862;2023-07-09T12:44:23;13.18;;;5.53;;
60169;SDS011;46042;49.444;6.862;2023-07-09T12:46:52;10.93;;;5.55;;
60169;SDS011;46042;49.444;6.862;2023-07-09T12:52:00;10.20;;;5.53;;
60169;SDS011;46042;49.444;6.862;2023-07-09T12:54:29;16.50;;;6.13;;
60169;SDS011;46042;49.444;6.862;2023-07-09T12:56:58;12.18;;;5.47;;
60169;SDS011;46042;49.444;6.862;2023-07-09T12:59:38;14.98;;;6.35;;
60169;SDS011;46042;49.444;6.862;2023-07-09T13:04:49;12.75;;;5.60;;
60169;SDS011;46042;49.444;6.862;2023-07-09T13:07:26;9.52;;;4.80;;
60169;SDS011;46042;49.444;6.862;2023-07-09T13:09:57;11.45;;;5.75;;
60169;SDS011;46042;49.444;6.862;2023-07-09T13:12:32;11.85;;;5.97;;
60169;SDS011;46042;49.444;6.862;2023-07-09T13:15:00;15.13;;;5.95;;
60169;SDS011;46042;49.444;6.862;2023-07-09T13:17:29;9.68;;;5.07;;
60169;SDS011;46042;49.444;6.862;2023-07-09T13:19:57;9.32;;;6.07;;
60169;SDS011;46042;49.444;6.862;2023-07-09T13:22:27;14.15;;;5.30;;
60169;SDS011;46042;49.444;6.862;2023-07-09T13:24:54;10.00;;;4.72;;
60169;SDS011;46042;49.444;6.862;2023-07-09T13:27:21;17.90;;;6.95;;
60169;SDS011;46042;49.444;6.862;2023-07-09T13:29:50;15.00;;;5.63;;
60169;SDS011;46042;49.444;6.862;2023-07-09T13:32:17;11.88;;;5.15;;
60169;SDS011;46042;49.444;6.862;2023-07-09T13:34:44;12.32;;;4.97;;
60169;SDS011;46042;49.444;6.862;2023-07-09T13:37:12;14.50;;;5.75;;
60169;SDS011;46042;49.444;6.862;2023-07-09T13:39:40;10.03;;;5.53;;
60169;SDS011;46042;49.444;6.862;2023-07-09T13:42:13;11.57;;;5.32;;
60169;SDS011;46042;49.444;6.862;2023-07-09T13:44:43;11.95;;;5.43;;
60169;SDS011;46042;49.444;6.862;2023-07-09T13:47:12;18.23;;;5.05;;
60169;SDS011;46042;49.444;6.862;2023-07-09T13:49:43;11.50;;;5.13;;
60169;SDS011;46042;49.444;6.862;2023-07-09T13:52:18;10.73;;;5.47;;
60169;SDS011;46042;49.444;6.862;2023-07-09T13:54:49;12.80;;;4.80;;
60169;SDS011;46042;49.444;6.862;2023-07-09T13:57:17;27.05;;;5.55;;
60169;SDS011;46042;49.444;6.862;2023-07-09T13:59:47;19.10;;;5.80;;
60169;SDS011;46042;49.444;6.862;2023-07-09T14:04:50;17.73;;;5.60;;
60169;SDS011;46042;49.444;6.862;2023-07-09T14:07:29;31.23;;;6.10;;
60169;SDS011;46042;49.444;6.862;2023-07-09T14:09:59;15.77;;;4.90;;
60169;SDS011;46042;49.444;6.862;2023-07-09T14:12:27;16.70;;;5.40;;
60169;SDS011;46042;49.444;6.862;2023-07-09T14:14:56;14.88;;;5.53;;
60169;SDS011;46042;49.444;6.862;2023-07-09T14:17:25;11.77;;;4.72;;
60169;SDS011;46042;49.444;6.862;2023-07-09T14:19:52;15.63;;;5.28;;
60169;SDS011;46042;49.444;6.862;2023-07-09T14:24:52;8.98;;;4.63;;
60169;SDS011;46042;49.444;6.862;2023-07-09T14:27:18;11.93;;;5.38;;
60169;SDS011;46042;49.444;6.862;2023-07-09T14:29:45;12.23;;;5.25;;
60169;SDS011;46042;49.444;6.862;2023-07-09T14:32:31;12.63;;;5.13;;
60169;SDS011;46042;49.444;6.862;2023-07-09T14:35:02;10.20;;;4.97;;
60169;SDS011;46042;49.444;6.862;2023-07-09T14:37:35;10.82;;;4.95;;
60169;SDS011;46042;49.444;6.862;2023-07-09T14:40:02;9.95;;;5.00;;
60169;SDS011;46042;49.444;6.862;2023-07-09T14:42:31;12.00;;;5.35;;
60169;SDS011;46042;49.444;6.862;2023-07-09T14:44:58;11.57;;;5.43;;
60169;SDS011;46042;49.444;6.862;2023-07-09T14:47:25;11.35;;;5.18;;
60169;SDS011;46042;49.444;6.862;2023-07-09T14:49:51;12.20;;;5.40;;
60169;SDS011;46042;49.444;6.862;2023-07-09T14:52:19;11.55;;;5.75;;
60169;SDS011;46042;49.444;6.862;2023-07-09T14:54:48;9.93;;;5.43;;
60169;SDS011;46042;49.444;6.862;2023-07-09T14:57:19;11.13;;;6.43;;
60169;SDS011;46042;49.444;6.862;2023-07-09T14:59:48;9.77;;;5.10;;
60169;SDS011;46042;49.444;6.862;2023-07-09T15:02:37;11.55;;;5.70;;
60169;SDS011;46042;49.444;6.862;2023-07-09T15:05:15;10.80;;;5.32;;
60169;SDS011;46042;49.444;6.862;2023-07-09T15:07:44;9.95;;;4.80;;
60169;SDS011;46042;49.444;6.862;2023-07-09T15:10:12;8.35;;;5.15;;
60169;SDS011;46042;49.444;6.862;2023-07-09T15:12:43;9.95;;;4.78;;
60169;SDS011;46042;49.444;6.862;2023-07-09T15:15:13;10.38;;;5.45;;
60169;SDS011;46042;49.444;6.862;2023-07-09T15:17:43;12.98;;;4.80;;
60169;SDS011;46042;49.444;6.862;2023-07-09T15:20:17;10.52;;;4.97;;
60169;SDS011;46042;49.444;6.862;2023-07-09T15:22:55;9.80;;;5.25;;
60169;SDS011;46042;49.444;6.862;2023-07-09T15:25:24;10.15;;;5.45;;
60169;SDS011;46042;49.444;6.862;2023-07-09T15:27:55;8.40;;;5.28;;
60169;SDS011;46042;49.444;6.862;2023-07-09T15:30:24;12.52;;;6.30;;
60169;SDS011;46042;49.444;6.862;2023-07-09T15:32:55;10.13;;;4.68;;
60169;SDS011;46042;49.444;6.862;2023-07-09T15:35:31;10.55;;;4.93;;
60169;SDS011;46042;49.444;6.862;2023-07-09T15:38:00;10.02;;;5.70;;
60169;SDS011;46042;49.444;6.862;2023-07-09T15:40:30;7.20;;;4.75;;
60169;SDS011;46042;49.444;6.862;2023-07-09T15:43:03;7.72;;;4.70;;
60169;SDS011;46042;49.444;6.862;2023-07-09T15:45:37;10.77;;;5.50;;
60169;SDS011;46042;49.444;6.862;2023-07-09T15:48:53;7.38;;;4.50;;
60169;SDS011;46042;49.444;6.862;2023-07-09T15:51:03;9.85;;;6.22;;
60169;SDS011;46042;49.444;6.862;2023-07-09T15:53:31;10.70;;;4.65;;
60169;SDS011;46042;49.444;6.862;2023-07-09T15:56:08;12.35;;;4.75;;
60169;SDS011;46042;49.444;6.862;2023-07-09T15:58:41;11.10;;;5.07;;
60169;SDS011;46042;49.444;6.862;2023-07-09T16:01:13;8.38;;;4.80;;